Hlavní strana
METAR-TAF:

METAR-TAF

Letiště :

Námořní základna Rota

Rota, Španělsko

zeměpisná šířka: 36-39N, zeměpisná délka: 006-21W, výška: 26 m

Aktuální stav počasí

Zpráva byla vytvořena před 40 minutami, v 22:00 UTC
Východní vítr 11 kt
Teplota 14°C
Vlhkost vzduchu 77%
Tlak 1017 hPa
Viditelnost 10 km a více
Skoro jasno ve výšce 4000 ft
Oblačno až skoro zataženo ve výšce 4800 ft

METAR: LERT 282200Z 09011KT 9999 FEW040 BKN048 14/10 Q1017 NOSIG

Čas: 23:40 (22:40 UTC)

Předpověď počasí

Zpráva byla vytvořena před 2 hodinami a 40 minutami, v 20:00 UTC
Předpověď platná od 28 v 21 UTC do 01 v 21 UTC
Východojihovýchodní vítr 12 kt
Viditelnost 10 km a více
Skoro jasno ve výšce 3000 ft
Změna
od 01 v 01 UTC do 01 v 03 UTC
Severovýchodní vítr 6 kt
Pravděpodobnost 30% :
Dočasný
od 01 v 00 UTC do 01 v 10 UTC
Viditelnost: 4000 m
déšť

TAF: LERT 282000Z 2821/0121 12012KT 9999 FEW030 TX19/0115Z TN11/0107Z BECMG 0101/0103 04006KT PROB30 TEMPO 0100/0110 4000 RA

Stav a předpovědi počasí z více než 4 000 letišť (zprávy METAR a TAF).

Červené a žluté tečky na mapě představují dostupné meteorologické stanice.

Když kurzor umístíte na tečku, zobrazí se název stanice.

Pak kliknutím zobrazíte stav a předpověď počasí.

Chcete-li změnit mapu, kliknutím na zelené tlačítko se znaménkem +mapu přiblížíte, kliknutím na zelené tlačítko se znaménkem – mapu oddálíte a kliknutím na zelené šipky přejdete na sousední mapy.


METAR-TAF: